Terminal Aerodrome Forecast
Issued by NWS

Home | Current Version | Previous Version | Text Only | Print | Product List | Glossary On
Versions: 1 2 3 4 5 6 7 8 9 10 11 12 13 14 15 16 17 18 19 20 21 22 23 24 25 26 27 28 29 30 31 32 33 34
044
FTUS46 KLOX 230357 AAA
TAFSBA
TAF AMD
KSBA 230357Z 2304/2324 31010KT P6SM FEW040
      TEMPO 2304/2305 33015G25KT
     FM230700 33008KT P6SM SKC WS012/35035KT
     FM231800 30010KT P6SM SKC
     FM232000 28015G25KT P6SM SKC=

USA.gov is the U.S. government's official web portal to all federal, state and local government web resources and services.